EW5058 Weather Reports


Display with metric or nautical units.
time (UTC)temp
F
wind
direction
speed
MPH
gust
MPH
rain 1hr
in
rain 24hr
in
rain mn
in
humidity
%
barometer
mb
20191211080018 35 315 10.0 16.0 0.00 0.00 0.00 92 1023.2
20191211075018 35 337 13.0 16.0 0.00 0.00 0.00 92 1023.0
20191211074020 35 337 14.0 19.0 0.00 0.00 0.00 91 1023.1
20191211073020 36 337 14.0 21.0 0.00 0.00 0.00 91 1022.9
20191211072018 36 337 21.0 25.0 0.00 0.00 0.00 90 1022.5
20191211071018 37 337 18.0 22.0 0.00 0.00 0.00 90 1022.3
20191211070020 37 337 16.0 23.0 0.00 0.00 0.00 90 1022.6
20191211065019 39 337 15.0 18.0 0.00 0.00 0.00 92 1021.8
20191211064018 39 337 17.0 19.0 0.00 0.00 0.00 91 1021.1
20191211063020 39 337 17.0 23.0 0.00 0.00 0.00 91 1020.9
20191211062020 39 315 13.0 16.0 0.00 0.00 0.00 90 1020.8
20191211061020 39 337 10.0 13.0 0.00 0.00 0.00 90 1020.5
20191211051019 42 337 15.0 23.0 0.00 0.00 0.00 91 1020.5
20191211050020 42 315 11.0 15.0 0.00 0.00 0.00 91 1019.9
20191211045019 42 337 13.0 17.0 0.00 0.00 0.00 90 1019.8
20191211044019 43 337 17.0 19.0 0.00 0.00 0.00 91 1019.6
20191211043019 43 337 11.0 15.0 0.00 0.00 0.00 92 1020.3
20191211042019 43 315 13.0 16.0 0.00 0.00 0.00 91 1020.2
20191211041019 44 0 12.0 19.0 0.00 0.00 0.00 90 1020.2
20191211040019 44 0 9.0 12.0 0.00 0.00 0.00 92 1019.5
20191211035019 44 0 8.0 10.0 0.00 0.00 0.00 92 1019.2
20191211034019 44 0 7.0 9.0 0.00 0.00 0.00 91 1019.6
20191211033020 44 0 6.0 8.0 0.00 0.00 0.00 91 1019.4
20191211032019 44 0 10.0 15.0 0.00 0.00 0.00 91 1019.0
20191211031018 45 315 11.0 13.0 0.00 0.00 0.00 91 1019.2
20191211030018 45 0 9.0 12.0 0.00 0.00 0.00 91 1018.7
20191211025018 45 315 11.0 17.0 0.00 0.00 0.00 91 1018.7
20191211024019 45 0 11.0 16.0 0.00 0.00 0.00 91 1018.8
20191211023019 46 0 11.0 18.0 0.00 0.00 0.00 93 1018.5
20191211022019 46 0 11.0 13.0 0.00 0.00 0.00 92 1018.2
20191211021019 47 0 5.0 8.0 0.00 0.00 0.00 92 1018.4
20191211020019 47 0 5.0 6.0 0.00 0.00 0.00 92 1018.1
20191211015020 47 0 8.0 11.0 0.00 0.00 0.00 91 1017.8
20191211014019 47 0 7.0 10.0 0.00 0.00 0.00 91 1017.8
20191211013020 48 0 10.0 13.0 0.00 0.00 0.00 91 1017.9
20191211012020 48 0 11.0 15.0 0.00 0.00 0.00 90 1017.0
20191211011020 49 337 11.0 15.0 0.00 0.00 0.00 90 1017.4
20191211010020 51 337 17.0 22.0 0.00 0.00 0.00 91 1017.6
20191211005020 51 0 10.0 16.0 0.00 0.00 0.00 94 1017.0
20191211004020 51 315 5.0 8.0 0.00 0.00 0.00 93 1016.7
20191211003020 51 315 4.0 5.0 0.00 0.00 0.00 93 1016.4
20191211002019 51 315 4.0 6.0 0.00 0.00 0.00 93 1015.8
20191211001021 52 315 5.0 6.0 0.00 0.00 0.00 93 1015.7
20191211000021 52 0 4.0 6.0 0.00 0.00 0.00 93 1015.4
20191210235020 52 0 3.0 4.0 0.00 0.00 0.00 92 1015.3
20191210234020 52 0 4.0 5.0 0.00 0.00 0.00 92 1015.5
20191210233020 53 315 6.0 10.0 0.00 0.00 0.00 91 1015.6
20191210232020 53 315 2.0 4.0 0.00 0.00 0.00 91 1015.5
20191210231021 53 292 3.0 5.0 0.00 0.00 0.00 90 1014.8
20191210230020 54 315 4.0 5.0 0.00 0.00 0.00 90 1014.4
20191210225020 54 315 6.0 9.0 0.00 0.00 0.00 90 1014.1
20191210224020 54 315 5.0 6.0 0.00 0.00 0.00 90 1013.8
20191210223020 54 315 9.0 11.0 0.00 0.00 0.00 90 1013.6
20191210222020 55 337 11.0 16.0 0.00 0.00 0.00 90 1013.1
20191210221020 55 337 8.0 10.0 0.00 0.00 0.00 92 1013.0
20191210220020 56 337 9.0 12.0 0.00 0.00 0.00 93 1012.8
20191210215020 56 315 3.0 4.0 0.00 0.00 0.00 92 1012.8
20191210214020 57 315 3.0 5.0 0.00 0.00 0.00 93 1012.8
20191210213020 57 337 4.0 8.0 0.00 0.00 0.00 94 1012.4
20191210212020 57 0.0 1.0 0.00 0.00 0.00 94 1012.1
20191210211021 57 0.0 1.0 0.00 0.00 0.00 94 1012.3
20191210210020 57 0.0 1.0 0.00 0.00 0.00 94 1012.0
20191210205020 57 0.0 1.0 0.00 0.00 0.00 94 1011.8
20191210204020 58 180 4.0 5.0 0.00 0.00 0.00 94 1011.5
20191210203020 58 180 1.0 1.0 0.00 0.00 0.00 93 1011.1
20191210201020 58 225 2.0 2.0 0.00 0.00 0.00 93 1011.1
20191210200020 59 0.0 1.0 0.00 0.00 0.00 93 1010.7
20191210195020 59 225 2.0 3.0 0.00 0.00 0.00 93 1010.6
20191210194020 59 270 1.0 1.0 0.00 0.00 0.00 93 1010.6
20191210193020 59 270 1.0 1.0 0.00 0.00 0.00 94 1010.4
20191210192020 59 157 1.0 2.0 0.00 0.00 0.00 94 1010.2
20191210191020 59 202 1.0 3.0 0.00 0.00 0.00 94 1010.5
20191210190020 59 180 1.0 2.0 0.00 0.00 0.00 94 1010.2
20191210185019 59 202 4.0 7.0 0.00 0.00 0.00 94 1010.2
20191210184020 59 180 2.0 3.0 0.00 0.00 0.00 94 1010.3
20191210183019 59 202 1.0 3.0 0.00 0.00 0.00 94 1010.5
20191210182020 60 180 3.0 6.0 0.00 0.00 0.00 93 1010.3
20191210181020 60 180 2.0 3.0 0.00 0.00 0.00 93 1010.7
20191210180020 60 247 3.0 5.0 0.00 0.00 0.00 92 1010.6
20191210175020 60 180 3.0 5.0 0.00 0.00 0.00 90 1010.4
20191210174019 61 180 1.0 3.0 0.00 0.00 0.00 88 1010.1
20191210173022 62 180 3.0 6.0 0.00 0.00 0.00 86 1010.0
20191210172021 62 157 3.0 5.0 0.00 0.00 0.00 85 1010.0
20191210171021 62 180 5.0 8.0 0.00 0.00 0.00 85 1010.0
20191210170021 62 157 2.0 4.0 0.00 0.00 0.00 85 1010.2
20191210165021 62 157 4.0 9.0 0.00 0.00 0.00 85 1010.2
20191210164022 62 180 5.0 8.0 0.00 0.00 0.00 85 1010.4
20191210163020 62 157 5.0 7.0 0.00 0.00 0.00 86 1010.6
20191210162020 61 180 7.0 15.0 0.00 0.00 0.00 88 1010.8
20191210161021 61 180 4.0 6.0 0.00 0.00 0.00 88 1010.9
20191210160021 61 180 3.0 6.0 0.00 0.00 0.00 88 1011.0
20191210155022 61 180 5.0 9.0 0.00 0.00 0.00 88 1011.1
20191210154022 61 180 3.0 5.0 0.00 0.00 0.00 87 1010.9
20191210153021 61 180 3.0 4.0 0.00 0.00 0.00 87 1010.8
20191210152021 61 157 4.0 11.0 0.00 0.00 0.00 87 1010.7
20191210151021 61 157 3.0 7.0 0.00 0.00 0.00 86 1010.8
20191210150021 61 157 6.0 8.0 0.00 0.00 0.00 86 1010.9
20191210145021 61 202 6.0 17.0 0.00 0.00 0.00 86 1011.1
20191210144021 61 0.0 0.0 0.00 0.00 0.00 86 1011.1
20191210143021 61 157 6.0 10.0 0.00 0.00 0.00 85 1011.2
20191210142021 61 180 7.0 13.0 0.00 0.00 0.00 86 1010.7
20191210141021 60 157 5.0 7.0 0.00 0.00 0.00 87 1011.0
20191210140021 60 180 6.0 11.0 0.00 0.00 0.00 87 1011.1
20191210135021 60 180 7.0 10.0 0.00 0.00 0.00 87 1010.9
20191210134021 60 180 8.0 12.0 0.00 0.00 0.00 87 1010.9
20191210133021 60 180 4.0 6.0 0.00 0.00 0.00 87 1010.7
20191210132021 59 202 8.0 12.0 0.00 0.00 0.00 88 1010.6
20191210131021 59 180 3.0 4.0 0.00 0.00 0.00 88 1010.7
20191210130021 59 157 8.0 12.0 0.00 0.00 0.00 87 1010.5
20191210125021 59 180 6.0 11.0 0.00 0.00 0.00 87 1010.3
20191210124021 59 157 7.0 11.0 0.00 0.00 0.00 87 1010.2
20191210123021 59 157 4.0 7.0 0.00 0.00 0.00 87 1010.0
20191210122021 58 180 5.0 7.0 0.00 0.00 0.00 87 1010.2
20191210121021 58 180 3.0 6.0 0.00 0.00 0.00 87 1010.1
20191210120021 58 157 4.0 6.0 0.00 0.00 0.00 87 1010.0
20191210115020 58 157 5.0 6.0 0.00 0.00 0.00 87 1010.0
20191210114021 58 180 7.0 12.0 0.00 0.00 0.00 87 1009.9
20191210113021 58 157 5.0 11.0 0.00 0.00 0.00 87 1010.0
20191210112021 58 180 3.0 5.0 0.00 0.00 0.00 87 1009.8
20191210111021 58 157 6.0 8.0 0.00 0.00 0.00 87 1009.9
20191210110021 58 180 8.0 11.0 0.00 0.00 0.00 87 1009.7
20191210105021 58 180 8.0 15.0 0.00 0.00 0.00 87 1009.8
20191210104021 58 202 5.0 10.0 0.00 0.00 0.00 87 1009.6
20191210103021 58 202 6.0 11.0 0.00 0.00 0.00 87 1009.5
20191210102021 58 180 6.0 14.0 0.00 0.00 0.00 87 1009.6
20191210101020 58 157 5.0 7.0 0.00 0.00 0.00 86 1009.8
20191210100021 58 180 4.0 7.0 0.00 0.00 0.00 86 1009.8
20191210095020 58 157 3.0 5.0 0.00 0.00 0.00 86 1009.7
20191210094020 58 180 6.0 10.0 0.00 0.00 0.00 86 1009.7
20191210093020 58 202 6.0 10.0 0.00 0.00 0.00 86 1009.6
20191210092021 58 180 5.0 10.0 0.00 0.00 0.00 86 1009.7
20191210091022 58 180 5.0 9.0 0.00 0.00 0.00 86 1009.7
20191210090023 58 180 4.0 6.0 0.00 0.00 0.00 86 1009.8
20191210085018 59 225 6.0 8.0 0.00 0.00 0.00 85 1009.7
20191210084018 59 157 4.0 7.0 0.00 0.00 0.00 85 1009.6
20191210083018 59 157 4.0 8.0 0.00 0.00 0.00 85 1009.5
20191210082020 59 180 5.0 12.0 0.00 0.00 0.00 86 1009.4
20191210081018 59 225 7.0 20.0 0.00 0.00 0.00 86 1009.3